sensor_id;sensor_type;location;lat;lon;timestamp;P1;durP1;ratioP1;P2;durP2;ratioP2
58294;SDS011;45705;55.592;37.460;2022-12-11T00:01:28;29.95;;;11.48;;
58294;SDS011;45705;55.592;37.460;2022-12-11T00:03:53;24.50;;;12.05;;
58294;SDS011;45705;55.592;37.460;2022-12-11T00:06:20;33.78;;;12.65;;
58294;SDS011;45705;55.592;37.460;2022-12-11T00:08:49;29.75;;;11.80;;
58294;SDS011;45705;55.592;37.460;2022-12-11T00:11:16;29.90;;;12.60;;
58294;SDS011;45705;55.592;37.460;2022-12-11T00:13:42;34.90;;;12.98;;
58294;SDS011;45705;55.592;37.460;2022-12-11T00:16:08;27.38;;;13.23;;
58294;SDS011;45705;55.592;37.460;2022-12-11T00:18:35;30.60;;;13.65;;
58294;SDS011;45705;55.592;37.460;2022-12-11T00:21:05;31.02;;;12.50;;
58294;SDS011;45705;55.592;37.460;2022-12-11T00:23:33;28.85;;;13.00;;
58294;SDS011;45705;55.592;37.460;2022-12-11T00:26:00;39.42;;;12.55;;
58294;SDS011;45705;55.592;37.460;2022-12-11T00:28:31;31.92;;;13.70;;
58294;SDS011;45705;55.592;37.460;2022-12-11T00:30:57;39.40;;;13.10;;
58294;SDS011;45705;55.592;37.460;2022-12-11T00:33:25;39.92;;;13.38;;
58294;SDS011;45705;55.592;37.460;2022-12-11T00:35:51;32.20;;;12.90;;
58294;SDS011;45705;55.592;37.460;2022-12-11T00:38:18;34.78;;;12.65;;
58294;SDS011;45705;55.592;37.460;2022-12-11T00:40:45;46.00;;;14.50;;
58294;SDS011;45705;55.592;37.460;2022-12-11T00:43:11;38.58;;;13.60;;
58294;SDS011;45705;55.592;37.460;2022-12-11T00:45:37;35.28;;;12.77;;
58294;SDS011;45705;55.592;37.460;2022-12-11T00:48:05;55.53;;;15.77;;
58294;SDS011;45705;55.592;37.460;2022-12-11T00:50:30;50.03;;;14.23;;
58294;SDS011;45705;55.592;37.460;2022-12-11T00:52:57;35.83;;;13.27;;
58294;SDS011;45705;55.592;37.460;2022-12-11T00:55:22;38.97;;;12.95;;
58294;SDS011;45705;55.592;37.460;2022-12-11T00:57:52;65.68;;;15.90;;
58294;SDS011;45705;55.592;37.460;2022-12-11T01:00:19;40.08;;;13.55;;
58294;SDS011;45705;55.592;37.460;2022-12-11T01:02:45;64.80;;;14.77;;
58294;SDS011;45705;55.592;37.460;2022-12-11T01:05:10;54.10;;;13.48;;
58294;SDS011;45705;55.592;37.460;2022-12-11T01:07:36;50.78;;;14.07;;
58294;SDS011;45705;55.592;37.460;2022-12-11T01:10:02;42.25;;;13.52;;
58294;SDS011;45705;55.592;37.460;2022-12-11T01:12:46;69.95;;;13.98;;
58294;SDS011;45705;55.592;37.460;2022-12-11T01:15:12;59.03;;;13.32;;
58294;SDS011;45705;55.592;37.460;2022-12-11T01:17:38;63.90;;;13.85;;
58294;SDS011;45705;55.592;37.460;2022-12-11T01:20:04;60.00;;;14.45;;
58294;SDS011;45705;55.592;37.460;2022-12-11T01:22:30;57.08;;;15.30;;
58294;SDS011;45705;55.592;37.460;2022-12-11T01:24:56;71.68;;;15.52;;
58294;SDS011;45705;55.592;37.460;2022-12-11T01:27:22;104.60;;;17.45;;
58294;SDS011;45705;55.592;37.460;2022-12-11T01:29:48;70.53;;;14.90;;
58294;SDS011;45705;55.592;37.460;2022-12-11T01:32:14;92.75;;;14.85;;
58294;SDS011;45705;55.592;37.460;2022-12-11T01:34:40;99.22;;;15.07;;
58294;SDS011;45705;55.592;37.460;2022-12-11T01:37:06;110.85;;;17.33;;
58294;SDS011;45705;55.592;37.460;2022-12-11T01:39:31;90.65;;;16.55;;
58294;SDS011;45705;55.592;37.460;2022-12-11T01:41:58;64.97;;;18.95;;
58294;SDS011;45705;55.592;37.460;2022-12-11T01:46:51;87.85;;;17.17;;
58294;SDS011;45705;55.592;37.460;2022-12-11T01:49:18;75.65;;;19.08;;
58294;SDS011;45705;55.592;37.460;2022-12-11T01:54:20;63.85;;;16.40;;
58294;SDS011;45705;55.592;37.460;2022-12-11T01:56:49;81.63;;;16.60;;
58294;SDS011;45705;55.592;37.460;2022-12-11T01:59:18;50.97;;;15.80;;
58294;SDS011;45705;55.592;37.460;2022-12-11T02:01:49;140.85;;;17.20;;
58294;SDS011;45705;55.592;37.460;2022-12-11T02:04:21;95.90;;;16.50;;
58294;SDS011;45705;55.592;37.460;2022-12-11T02:06:49;110.00;;;16.80;;
58294;SDS011;45705;55.592;37.460;2022-12-11T02:09:38;149.35;;;16.85;;
58294;SDS011;45705;55.592;37.460;2022-12-11T02:36:18;50.63;;;15.13;;
58294;SDS011;45705;55.592;37.460;2022-12-11T02:38:47;61.67;;;16.20;;
58294;SDS011;45705;55.592;37.460;2022-12-11T02:41:16;56.60;;;14.05;;
58294;SDS011;45705;55.592;37.460;2022-12-11T02:43:44;57.30;;;15.50;;
58294;SDS011;45705;55.592;37.460;2022-12-11T02:46:12;57.55;;;15.57;;
58294;SDS011;45705;55.592;37.460;2022-12-11T02:48:40;66.93;;;16.10;;
58294;SDS011;45705;55.592;37.460;2022-12-11T02:51:07;65.63;;;16.70;;
58294;SDS011;45705;55.592;37.460;2022-12-11T02:53:35;65.43;;;15.95;;
58294;SDS011;45705;55.592;37.460;2022-12-11T02:56:07;67.43;;;15.30;;
58294;SDS011;45705;55.592;37.460;2022-12-11T02:58:38;57.45;;;15.38;;
58294;SDS011;45705;55.592;37.460;2022-12-11T03:01:10;67.55;;;13.02;;
58294;SDS011;45705;55.592;37.460;2022-12-11T03:03:35;54.10;;;13.88;;
58294;SDS011;45705;55.592;37.460;2022-12-11T03:06:01;72.75;;;13.43;;
58294;SDS011;45705;55.592;37.460;2022-12-11T03:08:28;59.58;;;14.02;;
58294;SDS011;45705;55.592;37.460;2022-12-11T03:10:54;48.90;;;13.93;;
58294;SDS011;45705;55.592;37.460;2022-12-11T03:13:20;54.58;;;13.40;;
58294;SDS011;45705;55.592;37.460;2022-12-11T03:18:39;53.65;;;15.18;;
58294;SDS011;45705;55.592;37.460;2022-12-11T03:21:16;61.40;;;15.60;;
58294;SDS011;45705;55.592;37.460;2022-12-11T03:23:59;62.13;;;16.83;;
58294;SDS011;45705;55.592;37.460;2022-12-11T03:26:29;56.42;;;17.15;;
58294;SDS011;45705;55.592;37.460;2022-12-11T03:29:02;80.80;;;18.38;;
58294;SDS011;45705;55.592;37.460;2022-12-11T03:34:02;103.32;;;20.40;;
58294;SDS011;45705;55.592;37.460;2022-12-11T03:36:36;53.83;;;19.65;;
58294;SDS011;45705;55.592;37.460;2022-12-11T03:39:08;45.15;;;18.92;;
58294;SDS011;45705;55.592;37.460;2022-12-11T03:41:39;55.60;;;20.38;;
58294;SDS011;45705;55.592;37.460;2022-12-11T03:44:08;47.25;;;19.52;;
58294;SDS011;45705;55.592;37.460;2022-12-11T03:46:36;57.38;;;18.83;;
58294;SDS011;45705;55.592;37.460;2022-12-11T03:49:06;74.60;;;19.10;;
58294;SDS011;45705;55.592;37.460;2022-12-11T03:51:37;89.00;;;19.90;;
58294;SDS011;45705;55.592;37.460;2022-12-11T03:54:04;76.35;;;19.63;;
58294;SDS011;45705;55.592;37.460;2022-12-11T03:56:31;105.57;;;22.15;;
58294;SDS011;45705;55.592;37.460;2022-12-11T03:58:59;63.00;;;20.30;;
58294;SDS011;45705;55.592;37.460;2022-12-11T04:01:24;68.85;;;19.05;;
58294;SDS011;45705;55.592;37.460;2022-12-11T04:03:50;79.45;;;18.83;;
58294;SDS011;45705;55.592;37.460;2022-12-11T04:06:16;59.88;;;18.65;;
58294;SDS011;45705;55.592;37.460;2022-12-11T04:08:41;64.93;;;18.80;;
58294;SDS011;45705;55.592;37.460;2022-12-11T04:11:07;37.90;;;16.33;;
58294;SDS011;45705;55.592;37.460;2022-12-11T04:13:53;43.67;;;15.57;;
58294;SDS011;45705;55.592;37.460;2022-12-11T04:16:37;43.30;;;15.45;;
58294;SDS011;45705;55.592;37.460;2022-12-11T04:19:03;52.88;;;16.45;;
58294;SDS011;45705;55.592;37.460;2022-12-11T04:21:48;52.78;;;16.90;;
58294;SDS011;45705;55.592;37.460;2022-12-11T04:24:32;40.38;;;14.68;;
58294;SDS011;45705;55.592;37.460;2022-12-11T04:26:58;48.65;;;16.23;;
58294;SDS011;45705;55.592;37.460;2022-12-11T04:29:24;50.85;;;15.23;;
58294;SDS011;45705;55.592;37.460;2022-12-11T04:31:49;55.33;;;15.00;;
58294;SDS011;45705;55.592;37.460;2022-12-11T04:34:15;66.32;;;14.73;;
58294;SDS011;45705;55.592;37.460;2022-12-11T04:36:41;43.40;;;13.48;;
58294;SDS011;45705;55.592;37.460;2022-12-11T04:39:07;55.28;;;15.18;;
58294;SDS011;45705;55.592;37.460;2022-12-11T04:41:33;47.83;;;15.35;;
58294;SDS011;45705;55.592;37.460;2022-12-11T04:43:59;43.92;;;14.35;;
58294;SDS011;45705;55.592;37.460;2022-12-11T04:46:25;45.55;;;14.93;;
58294;SDS011;45705;55.592;37.460;2022-12-11T04:48:51;42.35;;;14.57;;
58294;SDS011;45705;55.592;37.460;2022-12-11T04:51:17;68.57;;;16.10;;
58294;SDS011;45705;55.592;37.460;2022-12-11T04:53:44;42.92;;;15.65;;
58294;SDS011;45705;55.592;37.460;2022-12-11T04:56:10;44.78;;;15.02;;
58294;SDS011;45705;55.592;37.460;2022-12-11T04:58:38;71.43;;;17.15;;
58294;SDS011;45705;55.592;37.460;2022-12-11T05:01:12;51.70;;;17.05;;
58294;SDS011;45705;55.592;37.460;2022-12-11T05:03:39;40.00;;;15.85;;
58294;SDS011;45705;55.592;37.460;2022-12-11T05:06:05;37.35;;;16.05;;
58294;SDS011;45705;55.592;37.460;2022-12-11T05:08:32;38.47;;;16.48;;
58294;SDS011;45705;55.592;37.460;2022-12-11T05:11:00;39.25;;;15.02;;
58294;SDS011;45705;55.592;37.460;2022-12-11T05:13:27;36.13;;;14.50;;
58294;SDS011;45705;55.592;37.460;2022-12-11T05:15:54;37.03;;;15.65;;
58294;SDS011;45705;55.592;37.460;2022-12-11T05:18:20;43.33;;;15.85;;
58294;SDS011;45705;55.592;37.460;2022-12-11T05:20:55;43.67;;;16.25;;
58294;SDS011;45705;55.592;37.460;2022-12-11T05:23:22;48.95;;;16.48;;
58294;SDS011;45705;55.592;37.460;2022-12-11T05:26:09;68.63;;;16.80;;
58294;SDS011;45705;55.592;37.460;2022-12-11T05:28:37;54.17;;;16.23;;
58294;SDS011;45705;55.592;37.460;2022-12-11T05:31:09;58.50;;;17.80;;
58294;SDS011;45705;55.592;37.460;2022-12-11T05:33:37;47.70;;;15.55;;
58294;SDS011;45705;55.592;37.460;2022-12-11T05:36:03;61.63;;;16.52;;
58294;SDS011;45705;55.592;37.460;2022-12-11T05:38:29;48.22;;;16.55;;
58294;SDS011;45705;55.592;37.460;2022-12-11T05:40:59;60.03;;;16.38;;
58294;SDS011;45705;55.592;37.460;2022-12-11T05:43:26;89.70;;;18.77;;
58294;SDS011;45705;55.592;37.460;2022-12-11T05:45:54;62.42;;;17.95;;
58294;SDS011;45705;55.592;37.460;2022-12-11T05:48:21;62.28;;;18.42;;
58294;SDS011;45705;55.592;37.460;2022-12-11T05:51:00;70.53;;;17.55;;
58294;SDS011;45705;55.592;37.460;2022-12-11T05:55:52;65.38;;;18.88;;
58294;SDS011;45705;55.592;37.460;2022-12-11T05:58:19;65.13;;;19.83;;
58294;SDS011;45705;55.592;37.460;2022-12-11T06:00:45;108.03;;;20.77;;
58294;SDS011;45705;55.592;37.460;2022-12-11T06:03:11;72.60;;;19.38;;
58294;SDS011;45705;55.592;37.460;2022-12-11T06:05:38;74.90;;;19.98;;
58294;SDS011;45705;55.592;37.460;2022-12-11T06:08:05;60.40;;;20.63;;
58294;SDS011;45705;55.592;37.460;2022-12-11T06:10:31;90.72;;;19.98;;
58294;SDS011;45705;55.592;37.460;2022-12-11T06:12:56;54.30;;;19.08;;
58294;SDS011;45705;55.592;37.460;2022-12-11T06:15:22;60.50;;;19.90;;
58294;SDS011;45705;55.592;37.460;2022-12-11T06:17:48;67.47;;;19.08;;
58294;SDS011;45705;55.592;37.460;2022-12-11T06:20:13;78.22;;;21.50;;
58294;SDS011;45705;55.592;37.460;2022-12-11T06:22:39;53.15;;;19.52;;
58294;SDS011;45705;55.592;37.460;2022-12-11T06:25:05;63.75;;;19.40;;
58294;SDS011;45705;55.592;37.460;2022-12-11T06:27:31;56.95;;;19.95;;
58294;SDS011;45705;55.592;37.460;2022-12-11T06:29:57;55.35;;;20.15;;
58294;SDS011;45705;55.592;37.460;2022-12-11T06:32:23;56.85;;;20.83;;
58294;SDS011;45705;55.592;37.460;2022-12-11T06:34:48;99.25;;;22.30;;
58294;SDS011;45705;55.592;37.460;2022-12-11T06:37:14;71.85;;;19.40;;
58294;SDS011;45705;55.592;37.460;2022-12-11T06:39:40;50.85;;;19.02;;
58294;SDS011;45705;55.592;37.460;2022-12-11T06:42:05;53.50;;;19.45;;
58294;SDS011;45705;55.592;37.460;2022-12-11T06:44:31;59.28;;;19.75;;
58294;SDS011;45705;55.592;37.460;2022-12-11T06:46:57;49.90;;;20.83;;
58294;SDS011;45705;55.592;37.460;2022-12-11T06:49:22;50.90;;;19.73;;
58294;SDS011;45705;55.592;37.460;2022-12-11T06:51:48;53.33;;;22.38;;
58294;SDS011;45705;55.592;37.460;2022-12-11T06:54:14;47.22;;;20.58;;
58294;SDS011;45705;55.592;37.460;2022-12-11T06:56:39;47.15;;;20.40;;
58294;SDS011;45705;55.592;37.460;2022-12-11T06:59:05;43.03;;;20.90;;
58294;SDS011;45705;55.592;37.460;2022-12-11T07:01:31;43.38;;;18.70;;
58294;SDS011;45705;55.592;37.460;2022-12-11T07:03:57;45.65;;;20.52;;
58294;SDS011;45705;55.592;37.460;2022-12-11T07:06:25;47.50;;;19.10;;
58294;SDS011;45705;55.592;37.460;2022-12-11T07:08:52;48.58;;;19.13;;
58294;SDS011;45705;55.592;37.460;2022-12-11T07:11:19;51.85;;;20.10;;
58294;SDS011;45705;55.592;37.460;2022-12-11T07:13:45;49.65;;;20.30;;
58294;SDS011;45705;55.592;37.460;2022-12-11T07:16:11;44.80;;;20.50;;
58294;SDS011;45705;55.592;37.460;2022-12-11T07:18:39;45.88;;;19.75;;
58294;SDS011;45705;55.592;37.460;2022-12-11T07:21:07;45.92;;;19.90;;
58294;SDS011;45705;55.592;37.460;2022-12-11T07:23:36;38.63;;;18.00;;
58294;SDS011;45705;55.592;37.460;2022-12-11T07:26:05;43.08;;;19.35;;
58294;SDS011;45705;55.592;37.460;2022-12-11T07:28:33;36.55;;;17.58;;
58294;SDS011;45705;55.592;37.460;2022-12-11T07:31:03;44.10;;;18.77;;
58294;SDS011;45705;55.592;37.460;2022-12-11T07:33:30;36.53;;;18.17;;
58294;SDS011;45705;55.592;37.460;2022-12-11T07:35:55;37.50;;;17.92;;
58294;SDS011;45705;55.592;37.460;2022-12-11T07:38:25;45.75;;;18.23;;
58294;SDS011;45705;55.592;37.460;2022-12-11T07:40:51;47.97;;;20.00;;
58294;SDS011;45705;55.592;37.460;2022-12-11T07:43:17;47.20;;;19.80;;
58294;SDS011;45705;55.592;37.460;2022-12-11T07:45:42;43.67;;;18.42;;
58294;SDS011;45705;55.592;37.460;2022-12-11T07:48:08;37.25;;;17.08;;
58294;SDS011;45705;55.592;37.460;2022-12-11T07:50:34;44.92;;;15.65;;
58294;SDS011;45705;55.592;37.460;2022-12-11T07:52:59;42.50;;;16.67;;
58294;SDS011;45705;55.592;37.460;2022-12-11T07:55:25;39.40;;;15.30;;
58294;SDS011;45705;55.592;37.460;2022-12-11T07:57:51;33.53;;;14.57;;
58294;SDS011;45705;55.592;37.460;2022-12-11T08:00:17;43.50;;;16.42;;
58294;SDS011;45705;55.592;37.460;2022-12-11T08:02:43;43.13;;;16.65;;
58294;SDS011;45705;55.592;37.460;2022-12-11T08:05:09;46.33;;;18.73;;
58294;SDS011;45705;55.592;37.460;2022-12-11T08:07:36;43.45;;;17.70;;
58294;SDS011;45705;55.592;37.460;2022-12-11T08:10:02;38.60;;;17.33;;
58294;SDS011;45705;55.592;37.460;2022-12-11T08:12:28;52.25;;;20.17;;
58294;SDS011;45705;55.592;37.460;2022-12-11T08:14:54;43.00;;;19.50;;
58294;SDS011;45705;55.592;37.460;2022-12-11T08:17:21;52.40;;;20.58;;
58294;SDS011;45705;55.592;37.460;2022-12-11T08:19:47;55.08;;;20.92;;
58294;SDS011;45705;55.592;37.460;2022-12-11T08:22:13;49.38;;;20.33;;
58294;SDS011;45705;55.592;37.460;2022-12-11T08:24:38;55.42;;;20.83;;
58294;SDS011;45705;55.592;37.460;2022-12-11T08:27:04;53.53;;;21.65;;
58294;SDS011;45705;55.592;37.460;2022-12-11T08:29:30;49.10;;;21.38;;
58294;SDS011;45705;55.592;37.460;2022-12-11T08:31:56;52.97;;;21.98;;
58294;SDS011;45705;55.592;37.460;2022-12-11T08:34:22;51.65;;;21.88;;
58294;SDS011;45705;55.592;37.460;2022-12-11T08:36:48;52.55;;;21.58;;
58294;SDS011;45705;55.592;37.460;2022-12-11T08:39:13;53.28;;;21.52;;
58294;SDS011;45705;55.592;37.460;2022-12-11T08:41:39;52.45;;;20.67;;
58294;SDS011;45705;55.592;37.460;2022-12-11T08:44:08;51.28;;;22.58;;
58294;SDS011;45705;55.592;37.460;2022-12-11T08:46:36;41.95;;;20.70;;
58294;SDS011;45705;55.592;37.460;2022-12-11T08:49:02;48.55;;;20.27;;
58294;SDS011;45705;55.592;37.460;2022-12-11T08:51:28;46.85;;;20.33;;
58294;SDS011;45705;55.592;37.460;2022-12-11T08:53:55;53.13;;;19.98;;
58294;SDS011;45705;55.592;37.460;2022-12-11T08:56:23;43.97;;;19.77;;
58294;SDS011;45705;55.592;37.460;2022-12-11T08:58:50;50.20;;;21.35;;
58294;SDS011;45705;55.592;37.460;2022-12-11T09:01:23;52.80;;;22.70;;
58294;SDS011;45705;55.592;37.460;2022-12-11T09:03:50;51.88;;;22.10;;
58294;SDS011;45705;55.592;37.460;2022-12-11T09:06:18;43.63;;;20.77;;
58294;SDS011;45705;55.592;37.460;2022-12-11T09:08:45;44.85;;;18.90;;
58294;SDS011;45705;55.592;37.460;2022-12-11T09:11:14;41.22;;;19.58;;
58294;SDS011;45705;55.592;37.460;2022-12-11T09:13:41;43.17;;;19.98;;
58294;SDS011;45705;55.592;37.460;2022-12-11T09:16:09;44.80;;;18.95;;
58294;SDS011;45705;55.592;37.460;2022-12-11T09:18:38;50.45;;;19.13;;
58294;SDS011;45705;55.592;37.460;2022-12-11T09:21:05;37.92;;;16.75;;
58294;SDS011;45705;55.592;37.460;2022-12-11T09:23:35;48.63;;;19.98;;
58294;SDS011;45705;55.592;37.460;2022-12-11T09:26:09;51.83;;;21.27;;
58294;SDS011;45705;55.592;37.460;2022-12-11T09:28:36;55.88;;;22.02;;
58294;SDS011;45705;55.592;37.460;2022-12-11T09:31:09;46.97;;;20.23;;
58294;SDS011;45705;55.592;37.460;2022-12-11T09:33:37;53.10;;;23.08;;
58294;SDS011;45705;55.592;37.460;2022-12-11T09:36:03;60.97;;;23.90;;
58294;SDS011;45705;55.592;37.460;2022-12-11T09:38:29;48.80;;;21.52;;
58294;SDS011;45705;55.592;37.460;2022-12-11T09:40:56;54.28;;;21.83;;
58294;SDS011;45705;55.592;37.460;2022-12-11T09:46:42;52.75;;;22.27;;
58294;SDS011;45705;55.592;37.460;2022-12-11T09:49:19;48.47;;;20.38;;
58294;SDS011;45705;55.592;37.460;2022-12-11T09:51:58;50.60;;;21.65;;
58294;SDS011;45705;55.592;37.460;2022-12-11T09:54:28;48.78;;;23.08;;
58294;SDS011;45705;55.592;37.460;2022-12-11T10:02:33;55.00;;;24.45;;
58294;SDS011;45705;55.592;37.460;2022-12-11T10:07:57;59.17;;;26.15;;
58294;SDS011;45705;55.592;37.460;2022-12-11T10:15:56;44.97;;;20.17;;
58294;SDS011;45705;55.592;37.460;2022-12-11T10:18:35;56.33;;;24.52;;
58294;SDS011;45705;55.592;37.460;2022-12-11T10:21:01;54.53;;;23.25;;
58294;SDS011;45705;55.592;37.460;2022-12-11T10:23:31;55.97;;;23.90;;
58294;SDS011;45705;55.592;37.460;2022-12-11T10:26:05;49.08;;;23.75;;
58294;SDS011;45705;55.592;37.460;2022-12-11T10:28:32;48.72;;;23.50;;
58294;SDS011;45705;55.592;37.460;2022-12-11T10:34:04;50.72;;;22.13;;
58294;SDS011;45705;55.592;37.460;2022-12-11T10:36:37;59.60;;;23.90;;
58294;SDS011;45705;55.592;37.460;2022-12-11T10:39:14;54.55;;;24.60;;
58294;SDS011;45705;55.592;37.460;2022-12-11T10:41:43;49.95;;;22.35;;
58294;SDS011;45705;55.592;37.460;2022-12-11T10:46:47;55.50;;;23.42;;
58294;SDS011;45705;55.592;37.460;2022-12-11T10:49:34;43.53;;;21.23;;
58294;SDS011;45705;55.592;37.460;2022-12-11T10:52:01;47.28;;;19.00;;
58294;SDS011;45705;55.592;37.460;2022-12-11T10:54:37;48.40;;;22.83;;
58294;SDS011;45705;55.592;37.460;2022-12-11T10:57:24;47.85;;;20.90;;
58294;SDS011;45705;55.592;37.460;2022-12-11T10:59:53;41.58;;;19.52;;
58294;SDS011;45705;55.592;37.460;2022-12-11T11:04:54;47.92;;;21.98;;
58294;SDS011;45705;55.592;37.460;2022-12-11T11:07:23;54.47;;;21.95;;
58294;SDS011;45705;55.592;37.460;2022-12-11T11:12:45;54.13;;;23.10;;
58294;SDS011;45705;55.592;37.460;2022-12-11T11:15:14;49.38;;;23.58;;
58294;SDS011;45705;55.592;37.460;2022-12-11T11:17:49;46.28;;;19.52;;
58294;SDS011;45705;55.592;37.460;2022-12-11T11:20:18;54.80;;;22.95;;
58294;SDS011;45705;55.592;37.460;2022-12-11T11:22:48;48.30;;;21.00;;
58294;SDS011;45705;55.592;37.460;2022-12-11T11:25:19;46.47;;;19.67;;
58294;SDS011;45705;55.592;37.460;2022-12-11T11:30:20;47.95;;;21.95;;
58294;SDS011;45705;55.592;37.460;2022-12-11T11:32:57;53.83;;;24.25;;
58294;SDS011;45705;55.592;37.460;2022-12-11T11:35:28;53.85;;;23.50;;
58294;SDS011;45705;55.592;37.460;2022-12-11T11:38:13;51.35;;;21.08;;
58294;SDS011;45705;55.592;37.460;2022-12-11T11:54:30;48.80;;;22.45;;
58294;SDS011;45705;55.592;37.460;2022-12-11T11:57:17;45.65;;;20.00;;
58294;SDS011;45705;55.592;37.460;2022-12-11T11:59:54;37.33;;;17.80;;
58294;SDS011;45705;55.592;37.460;2022-12-11T12:02:39;49.05;;;20.85;;
58294;SDS011;45705;55.592;37.460;2022-12-11T12:05:10;46.90;;;22.02;;
58294;SDS011;45705;55.592;37.460;2022-12-11T12:10:20;35.83;;;15.98;;
58294;SDS011;45705;55.592;37.460;2022-12-11T12:15:50;35.40;;;17.15;;
58294;SDS011;45705;55.592;37.460;2022-12-11T12:21:10;38.47;;;19.73;;
58294;SDS011;45705;55.592;37.460;2022-12-11T12:26:35;35.10;;;18.88;;
58294;SDS011;45705;55.592;37.460;2022-12-11T12:31:39;34.92;;;16.85;;
58294;SDS011;45705;55.592;37.460;2022-12-11T12:47:54;28.88;;;15.60;;
58294;SDS011;45705;55.592;37.460;2022-12-11T12:50:22;29.10;;;15.48;;
58294;SDS011;45705;55.592;37.460;2022-12-11T12:52:50;33.20;;;14.02;;
58294;SDS011;45705;55.592;37.460;2022-12-11T12:55:18;25.45;;;13.30;;
58294;SDS011;45705;55.592;37.460;2022-12-11T12:57:49;26.58;;;13.10;;
58294;SDS011;45705;55.592;37.460;2022-12-11T13:00:29;23.85;;;11.57;;
58294;SDS011;45705;55.592;37.460;2022-12-11T13:03:25;18.75;;;10.15;;
58294;SDS011;45705;55.592;37.460;2022-12-11T13:08:29;20.80;;;10.90;;
58294;SDS011;45705;55.592;37.460;2022-12-11T13:11:05;20.73;;;11.85;;
58294;SDS011;45705;55.592;37.460;2022-12-11T13:13:38;19.92;;;10.23;;
58294;SDS011;45705;55.592;37.460;2022-12-11T13:18:40;21.80;;;10.55;;
58294;SDS011;45705;55.592;37.460;2022-12-11T13:24:09;20.08;;;10.85;;
58294;SDS011;45705;55.592;37.460;2022-12-11T13:26:37;18.85;;;10.43;;
58294;SDS011;45705;55.592;37.460;2022-12-11T13:29:03;18.27;;;10.55;;
58294;SDS011;45705;55.592;37.460;2022-12-11T13:34:04;20.35;;;10.45;;
58294;SDS011;45705;55.592;37.460;2022-12-11T13:36:39;21.45;;;12.00;;
58294;SDS011;45705;55.592;37.460;2022-12-11T13:39:15;16.83;;;9.50;;
58294;SDS011;45705;55.592;37.460;2022-12-11T13:41:47;17.65;;;9.88;;
58294;SDS011;45705;55.592;37.460;2022-12-11T13:44:20;20.10;;;11.27;;
58294;SDS011;45705;55.592;37.460;2022-12-11T13:46:50;18.92;;;10.20;;
58294;SDS011;45705;55.592;37.460;2022-12-11T13:49:23;17.60;;;10.27;;
58294;SDS011;45705;55.592;37.460;2022-12-11T13:51:54;19.13;;;10.57;;
58294;SDS011;45705;55.592;37.460;2022-12-11T13:54:23;18.20;;;10.65;;
58294;SDS011;45705;55.592;37.460;2022-12-11T13:56:57;24.92;;;12.45;;
58294;SDS011;45705;55.592;37.460;2022-12-11T13:59:32;21.02;;;12.10;;
58294;SDS011;45705;55.592;37.460;2022-12-11T14:02:05;17.85;;;11.30;;
58294;SDS011;45705;55.592;37.460;2022-12-11T14:04:44;19.60;;;9.77;;
58294;SDS011;45705;55.592;37.460;2022-12-11T14:07:14;26.67;;;14.70;;
58294;SDS011;45705;55.592;37.460;2022-12-11T14:09:44;17.10;;;9.77;;
58294;SDS011;45705;55.592;37.460;2022-12-11T14:12:17;21.90;;;12.95;;
58294;SDS011;45705;55.592;37.460;2022-12-11T14:14:53;22.75;;;13.38;;
58294;SDS011;45705;55.592;37.460;2022-12-11T14:17:27;23.42;;;12.63;;
58294;SDS011;45705;55.592;37.460;2022-12-11T14:19:56;24.45;;;13.07;;
58294;SDS011;45705;55.592;37.460;2022-12-11T14:22:25;22.50;;;12.65;;
58294;SDS011;45705;55.592;37.460;2022-12-11T14:24:53;25.63;;;13.65;;
58294;SDS011;45705;55.592;37.460;2022-12-11T14:27:21;19.48;;;10.48;;
58294;SDS011;45705;55.592;37.460;2022-12-11T14:29:48;23.17;;;13.00;;
58294;SDS011;45705;55.592;37.460;2022-12-11T14:32:34;25.27;;;12.95;;
58294;SDS011;45705;55.592;37.460;2022-12-11T14:35:04;18.70;;;10.63;;
58294;SDS011;45705;55.592;37.460;2022-12-11T14:37:34;21.92;;;13.65;;
58294;SDS011;45705;55.592;37.460;2022-12-11T14:40:05;21.48;;;13.48;;
58294;SDS011;45705;55.592;37.460;2022-12-11T14:42:38;24.27;;;13.98;;
58294;SDS011;45705;55.592;37.460;2022-12-11T14:45:13;16.85;;;9.88;;
58294;SDS011;45705;55.592;37.460;2022-12-11T14:47:49;18.80;;;9.25;;
58294;SDS011;45705;55.592;37.460;2022-12-11T14:50:21;17.17;;;9.95;;
58294;SDS011;45705;55.592;37.460;2022-12-11T14:52:56;26.70;;;13.27;;
58294;SDS011;45705;55.592;37.460;2022-12-11T14:55:29;13.88;;;8.20;;
58294;SDS011;45705;55.592;37.460;2022-12-11T14:58:03;16.98;;;9.77;;
58294;SDS011;45705;55.592;37.460;2022-12-11T15:00:40;17.67;;;8.70;;
58294;SDS011;45705;55.592;37.460;2022-12-11T15:05:49;20.65;;;8.90;;
58294;SDS011;45705;55.592;37.460;2022-12-11T15:08:20;14.80;;;7.43;;
58294;SDS011;45705;55.592;37.460;2022-12-11T15:11:01;23.83;;;11.82;;
58294;SDS011;45705;55.592;37.460;2022-12-11T15:13:35;15.80;;;9.48;;
58294;SDS011;45705;55.592;37.460;2022-12-11T15:16:04;15.63;;;8.73;;
58294;SDS011;45705;55.592;37.460;2022-12-11T15:18:32;13.73;;;8.15;;
58294;SDS011;45705;55.592;37.460;2022-12-11T15:21:03;10.13;;;6.15;;
58294;SDS011;45705;55.592;37.460;2022-12-11T15:23:53;14.35;;;8.77;;
58294;SDS011;45705;55.592;37.460;2022-12-11T15:26:34;17.17;;;8.75;;
58294;SDS011;45705;55.592;37.460;2022-12-11T15:29:04;22.52;;;10.52;;
58294;SDS011;45705;55.592;37.460;2022-12-11T15:31:32;14.10;;;7.22;;
58294;SDS011;45705;55.592;37.460;2022-12-11T15:33:59;22.67;;;10.73;;
58294;SDS011;45705;55.592;37.460;2022-12-11T15:36:30;14.25;;;8.05;;
58294;SDS011;45705;55.592;37.460;2022-12-11T15:39:02;19.70;;;9.93;;
58294;SDS011;45705;55.592;37.460;2022-12-11T15:41:30;21.85;;;9.80;;
58294;SDS011;45705;55.592;37.460;2022-12-11T15:43:59;18.05;;;10.32;;
58294;SDS011;45705;55.592;37.460;2022-12-11T15:46:27;27.55;;;10.73;;
58294;SDS011;45705;55.592;37.460;2022-12-11T15:48:57;15.68;;;6.90;;
58294;SDS011;45705;55.592;37.460;2022-12-11T15:51:22;20.80;;;10.02;;
58294;SDS011;45705;55.592;37.460;2022-12-11T15:53:49;23.95;;;11.52;;
58294;SDS011;45705;55.592;37.460;2022-12-11T15:56:15;22.88;;;10.40;;
58294;SDS011;45705;55.592;37.460;2022-12-11T15:58:44;12.50;;;7.50;;
58294;SDS011;45705;55.592;37.460;2022-12-11T16:01:12;14.30;;;7.32;;
58294;SDS011;45705;55.592;37.460;2022-12-11T16:03:38;17.98;;;10.20;;
58294;SDS011;45705;55.592;37.460;2022-12-11T16:06:03;16.20;;;8.95;;
58294;SDS011;45705;55.592;37.460;2022-12-11T16:08:29;11.65;;;6.47;;
58294;SDS011;45705;55.592;37.460;2022-12-11T16:10:55;13.23;;;6.63;;
58294;SDS011;45705;55.592;37.460;2022-12-11T16:13:21;15.65;;;7.72;;
58294;SDS011;45705;55.592;37.460;2022-12-11T16:15:47;17.75;;;9.20;;
58294;SDS011;45705;55.592;37.460;2022-12-11T16:18:16;11.07;;;5.95;;
58294;SDS011;45705;55.592;37.460;2022-12-11T16:23:11;8.68;;;4.88;;
58294;SDS011;45705;55.592;37.460;2022-12-11T16:25:38;10.52;;;6.20;;
58294;SDS011;45705;55.592;37.460;2022-12-11T16:28:05;10.32;;;4.88;;